sensor_id;sensor_type;location;lat;lon;timestamp;pressure;altitude;pressure_sealevel;temperature;humidity
22662;BME280;11497;52.222;21.246;2023-01-29T00:02:19;101309.03;;;-0.40;70.12
22662;BME280;11497;52.222;21.246;2023-01-29T00:04:47;101301.66;;;-0.28;70.03
22662;BME280;11497;52.222;21.246;2023-01-29T00:07:15;101292.69;;;-0.44;70.09
22662;BME280;11497;52.222;21.246;2023-01-29T00:09:43;101298.72;;;-0.42;70.42
22662;BME280;11497;52.222;21.246;2023-01-29T00:12:11;101296.00;;;-0.48;70.78
22662;BME280;11497;52.222;21.246;2023-01-29T00:14:38;101294.59;;;-0.35;70.75
22662;BME280;11497;52.222;21.246;2023-01-29T00:17:07;101291.16;;;-0.36;69.88
22662;BME280;11497;52.222;21.246;2023-01-29T00:19:35;101282.69;;;-0.31;70.10
22662;BME280;11497;52.222;21.246;2023-01-29T00:22:03;101274.16;;;-0.30;69.99
22662;BME280;11497;52.222;21.246;2023-01-29T00:24:30;101274.81;;;-0.38;70.33
22662;BME280;11497;52.222;21.246;2023-01-29T00:26:58;101272.41;;;-0.31;70.25
22662;BME280;11497;52.222;21.246;2023-01-29T00:29:26;101279.41;;;-0.26;70.23
22662;BME280;11497;52.222;21.246;2023-01-29T00:31:54;101267.81;;;-0.45;69.89
22662;BME280;11497;52.222;21.246;2023-01-29T00:34:22;101263.50;;;-0.46;70.69
22662;BME280;11497;52.222;21.246;2023-01-29T00:36:50;101256.28;;;-0.59;70.84
22662;BME280;11497;52.222;21.246;2023-01-29T00:39:18;101263.25;;;-0.55;70.99
22662;BME280;11497;52.222;21.246;2023-01-29T00:42:05;101262.41;;;-0.54;71.59
22662;BME280;11497;52.222;21.246;2023-01-29T00:44:52;101270.66;;;-0.67;71.80
22662;BME280;11497;52.222;21.246;2023-01-29T00:47:26;101270.81;;;-0.61;72.18
22662;BME280;11497;52.222;21.246;2023-01-29T00:50:02;101265.81;;;-0.55;72.24
22662;BME280;11497;52.222;21.246;2023-01-29T00:52:31;101264.09;;;-0.56;71.71
22662;BME280;11497;52.222;21.246;2023-01-29T00:54:59;101270.59;;;-0.36;71.60
22662;BME280;11497;52.222;21.246;2023-01-29T00:57:29;101257.59;;;-0.40;71.83
22662;BME280;11497;52.222;21.246;2023-01-29T00:59:57;101247.44;;;-0.36;71.83
22662;BME280;11497;52.222;21.246;2023-01-29T01:02:26;101237.91;;;-0.40;71.75
22662;BME280;11497;52.222;21.246;2023-01-29T01:05:15;101248.34;;;-0.34;72.38
22662;BME280;11497;52.222;21.246;2023-01-29T01:07:48;101239.88;;;-0.29;72.30
22662;BME280;11497;52.222;21.246;2023-01-29T01:10:19;101240.03;;;-0.23;72.11
22662;BME280;11497;52.222;21.246;2023-01-29T01:15:24;101237.31;;;0.08;71.42
22662;BME280;11497;52.222;21.246;2023-01-29T01:17:57;101228.13;;;-0.18;71.29
22662;BME280;11497;52.222;21.246;2023-01-29T01:20:28;101218.66;;;-0.21;70.96
22662;BME280;11497;52.222;21.246;2023-01-29T01:22:56;101219.81;;;-0.08;70.87
22662;BME280;11497;52.222;21.246;2023-01-29T01:25:25;101221.72;;;0.02;70.63
22662;BME280;11497;52.222;21.246;2023-01-29T01:27:57;101215.34;;;-0.15;70.30
22662;BME280;11497;52.222;21.246;2023-01-29T01:30:26;101213.91;;;-0.04;70.44
22662;BME280;11497;52.222;21.246;2023-01-29T01:32:55;101207.81;;;-0.08;70.37
22662;BME280;11497;52.222;21.246;2023-01-29T01:35:23;101213.13;;;0.00;70.44
22662;BME280;11497;52.222;21.246;2023-01-29T01:37:51;101206.03;;;-0.10;70.55
22662;BME280;11497;52.222;21.246;2023-01-29T01:40:20;101208.38;;;-0.19;70.83
22662;BME280;11497;52.222;21.246;2023-01-29T01:42:54;101214.53;;;-0.14;70.66
22662;BME280;11497;52.222;21.246;2023-01-29T01:45:29;101211.97;;;-0.13;71.04
22662;BME280;11497;52.222;21.246;2023-01-29T01:48:13;101211.63;;;-0.28;71.10
22662;BME280;11497;52.222;21.246;2023-01-29T01:50:54;101205.81;;;-0.19;71.26
22662;BME280;11497;52.222;21.246;2023-01-29T01:53:36;101203.19;;;-0.22;71.04
22662;BME280;11497;52.222;21.246;2023-01-29T01:56:20;101208.25;;;-0.25;71.60
22662;BME280;11497;52.222;21.246;2023-01-29T01:58:54;101219.13;;;-0.36;71.44
22662;BME280;11497;52.222;21.246;2023-01-29T02:01:24;101225.38;;;-0.26;71.84
22662;BME280;11497;52.222;21.246;2023-01-29T02:04:04;101216.84;;;-0.25;71.38
22662;BME280;11497;52.222;21.246;2023-01-29T02:06:52;101217.06;;;-0.16;71.05
22662;BME280;11497;52.222;21.246;2023-01-29T02:12:27;101218.59;;;-0.22;71.16
22662;BME280;11497;52.222;21.246;2023-01-29T02:14:58;101213.28;;;-0.30;71.44
22662;BME280;11497;52.222;21.246;2023-01-29T02:17:26;101219.22;;;-0.32;71.77
22662;BME280;11497;52.222;21.246;2023-01-29T02:20:01;101208.63;;;-0.10;71.49
22662;BME280;11497;52.222;21.246;2023-01-29T02:31:31;101214.88;;;-0.35;71.17
22662;BME280;11497;52.222;21.246;2023-01-29T02:37:09;101200.03;;;-0.47;71.40
22662;BME280;11497;52.222;21.246;2023-01-29T02:40:31;101193.78;;;-0.20;71.48
22662;BME280;11497;52.222;21.246;2023-01-29T02:42:51;101192.78;;;-0.27;71.31
22662;BME280;11497;52.222;21.246;2023-01-29T02:48:04;101192.47;;;-0.39;71.21
22662;BME280;11497;52.222;21.246;2023-01-29T02:50:44;101185.94;;;-0.26;70.99
22662;BME280;11497;52.222;21.246;2023-01-29T02:53:26;101186.69;;;-0.30;71.03
22662;BME280;11497;52.222;21.246;2023-01-29T02:56:08;101185.88;;;-0.28;71.12
22662;BME280;11497;52.222;21.246;2023-01-29T02:58:51;101191.69;;;-0.37;71.31
22662;BME280;11497;52.222;21.246;2023-01-29T03:01:35;101183.97;;;-0.37;71.52
22662;BME280;11497;52.222;21.246;2023-01-29T03:04:11;101192.59;;;-0.35;71.48
22662;BME280;11497;52.222;21.246;2023-01-29T03:06:53;101186.75;;;-0.27;71.93
22662;BME280;11497;52.222;21.246;2023-01-29T03:09:33;101182.94;;;-0.45;71.93
22662;BME280;11497;52.222;21.246;2023-01-29T03:12:17;101186.19;;;-0.52;71.94
22662;BME280;11497;52.222;21.246;2023-01-29T03:15:08;101179.53;;;-0.44;71.90
22662;BME280;11497;52.222;21.246;2023-01-29T03:18:09;101171.75;;;-0.47;71.72
22662;BME280;11497;52.222;21.246;2023-01-29T03:20:46;101179.22;;;-0.56;71.87
22662;BME280;11497;52.222;21.246;2023-01-29T03:23:24;101178.41;;;-0.55;71.99
22662;BME280;11497;52.222;21.246;2023-01-29T03:26:09;101172.78;;;-0.39;72.09
22662;BME280;11497;52.222;21.246;2023-01-29T03:28:58;101170.84;;;-0.49;71.87
22662;BME280;11497;52.222;21.246;2023-01-29T03:31:46;101165.88;;;-0.40;72.08
22662;BME280;11497;52.222;21.246;2023-01-29T03:34:39;101162.34;;;-0.46;72.40
22662;BME280;11497;52.222;21.246;2023-01-29T03:37:21;101168.38;;;-0.44;72.35
22662;BME280;11497;52.222;21.246;2023-01-29T03:39:53;101158.81;;;-0.50;72.53
22662;BME280;11497;52.222;21.246;2023-01-29T03:42:53;101160.63;;;-0.46;72.58
22662;BME280;11497;52.222;21.246;2023-01-29T03:48:13;101164.28;;;-0.35;72.54
22662;BME280;11497;52.222;21.246;2023-01-29T03:56:52;101169.63;;;-0.27;73.21
22662;BME280;11497;52.222;21.246;2023-01-29T04:02:33;101160.97;;;-0.30;73.13
22662;BME280;11497;52.222;21.246;2023-01-29T04:05:15;101157.56;;;-0.29;72.79
22662;BME280;11497;52.222;21.246;2023-01-29T04:08:04;101158.41;;;-0.30;72.94
22662;BME280;11497;52.222;21.246;2023-01-29T04:10:34;101153.09;;;-0.37;73.00
22662;BME280;11497;52.222;21.246;2023-01-29T04:13:10;101153.06;;;-0.38;73.02
22662;BME280;11497;52.222;21.246;2023-01-29T04:15:46;101150.03;;;-0.22;73.24
22662;BME280;11497;52.222;21.246;2023-01-29T04:18:17;101154.22;;;-0.25;72.75
22662;BME280;11497;52.222;21.246;2023-01-29T04:21:02;101149.88;;;-0.28;72.93
22662;BME280;11497;52.222;21.246;2023-01-29T04:23:33;101146.31;;;-0.33;72.73
22662;BME280;11497;52.222;21.246;2023-01-29T04:39:29;101127.06;;;-0.52;72.89
22662;BME280;11497;52.222;21.246;2023-01-29T04:42:28;101128.88;;;-0.48;73.53
22662;BME280;11497;52.222;21.246;2023-01-29T04:44:57;101127.41;;;-0.35;73.40
22662;BME280;11497;52.222;21.246;2023-01-29T04:50:45;101122.38;;;-0.30;73.27
22662;BME280;11497;52.222;21.246;2023-01-29T04:59:03;101109.13;;;-0.49;73.29
22662;BME280;11497;52.222;21.246;2023-01-29T05:01:33;101108.22;;;-0.51;73.55
22662;BME280;11497;52.222;21.246;2023-01-29T05:04:06;101107.31;;;-0.53;73.91
22662;BME280;11497;52.222;21.246;2023-01-29T05:06:36;101112.59;;;-0.47;74.16
22662;BME280;11497;52.222;21.246;2023-01-29T05:09:05;101100.44;;;-0.54;73.93
22662;BME280;11497;52.222;21.246;2023-01-29T05:11:35;101109.59;;;-0.27;73.82
22662;BME280;11497;52.222;21.246;2023-01-29T05:14:05;101113.75;;;-0.32;73.55
22662;BME280;11497;52.222;21.246;2023-01-29T05:16:39;101116.41;;;-0.29;73.55
22662;BME280;11497;52.222;21.246;2023-01-29T05:19:10;101125.31;;;-0.15;73.64
22662;BME280;11497;52.222;21.246;2023-01-29T05:21:39;101099.44;;;-0.21;73.57
22662;BME280;11497;52.222;21.246;2023-01-29T05:24:20;101117.44;;;-0.21;73.39
22662;BME280;11497;52.222;21.246;2023-01-29T05:26:50;101117.44;;;-0.21;73.38
22662;BME280;11497;52.222;21.246;2023-01-29T05:29:38;101109.75;;;-0.20;73.39
22662;BME280;11497;52.222;21.246;2023-01-29T05:32:06;101107.19;;;-0.20;73.45
22662;BME280;11497;52.222;21.246;2023-01-29T05:34:34;101095.88;;;-0.28;73.65
22662;BME280;11497;52.222;21.246;2023-01-29T05:37:02;101099.38;;;-0.24;73.77
22662;BME280;11497;52.222;21.246;2023-01-29T05:39:30;101093.44;;;-0.22;73.10
22662;BME280;11497;52.222;21.246;2023-01-29T05:41:59;101088.09;;;-0.29;73.39
22662;BME280;11497;52.222;21.246;2023-01-29T05:44:27;101089.59;;;-0.39;73.45
22662;BME280;11497;52.222;21.246;2023-01-29T05:46:54;101080.53;;;-0.23;73.73
22662;BME280;11497;52.222;21.246;2023-01-29T05:49:22;101080.31;;;-0.32;73.33
22662;BME280;11497;52.222;21.246;2023-01-29T05:51:50;101069.22;;;-0.30;73.86
22662;BME280;11497;52.222;21.246;2023-01-29T05:54:18;101079.56;;;-0.28;73.70
22662;BME280;11497;52.222;21.246;2023-01-29T05:56:46;101079.06;;;-0.12;73.58
22662;BME280;11497;52.222;21.246;2023-01-29T05:59:15;101079.72;;;-0.21;73.39
22662;BME280;11497;52.222;21.246;2023-01-29T06:01:42;101080.47;;;-0.26;73.38
22662;BME280;11497;52.222;21.246;2023-01-29T06:04:10;101076.03;;;-0.32;73.32
22662;BME280;11497;52.222;21.246;2023-01-29T06:06:38;101089.56;;;-0.41;73.88
22662;BME280;11497;52.222;21.246;2023-01-29T06:09:08;101094.09;;;-0.30;74.07
22662;BME280;11497;52.222;21.246;2023-01-29T06:11:36;101090.13;;;-0.16;74.00
22662;BME280;11497;52.222;21.246;2023-01-29T06:14:04;101094.22;;;-0.24;73.88
22662;BME280;11497;52.222;21.246;2023-01-29T06:16:32;101093.63;;;-0.13;73.30
22662;BME280;11497;52.222;21.246;2023-01-29T06:19:00;101093.69;;;-0.10;73.44
22662;BME280;11497;52.222;21.246;2023-01-29T06:21:28;101087.81;;;-0.04;73.05
22662;BME280;11497;52.222;21.246;2023-01-29T06:23:56;101084.19;;;-0.12;73.05
22662;BME280;11497;52.222;21.246;2023-01-29T06:26:23;101086.59;;;-0.20;73.09
22662;BME280;11497;52.222;21.246;2023-01-29T06:28:51;101085.03;;;-0.13;73.04
22662;BME280;11497;52.222;21.246;2023-01-29T06:31:19;101092.97;;;-0.04;72.94
22662;BME280;11497;52.222;21.246;2023-01-29T06:34:04;101094.56;;;-0.09;72.96
22662;BME280;11497;52.222;21.246;2023-01-29T06:36:32;101085.75;;;-0.20;73.14
22662;BME280;11497;52.222;21.246;2023-01-29T06:39:00;101089.53;;;-0.03;73.33
22662;BME280;11497;52.222;21.246;2023-01-29T06:41:28;101094.72;;;-0.02;72.85
22662;BME280;11497;52.222;21.246;2023-01-29T06:43:56;101096.47;;;0.01;72.73
22662;BME280;11497;52.222;21.246;2023-01-29T06:46:24;101094.78;;;0.03;72.70
22662;BME280;11497;52.222;21.246;2023-01-29T06:48:51;101094.13;;;0.12;72.60
22662;BME280;11497;52.222;21.246;2023-01-29T06:51:19;101090.63;;;0.10;72.52
22662;BME280;11497;52.222;21.246;2023-01-29T06:53:49;101091.44;;;0.07;72.46
22662;BME280;11497;52.222;21.246;2023-01-29T06:56:17;101103.72;;;0.20;72.47
22662;BME280;11497;52.222;21.246;2023-01-29T06:58:45;101088.53;;;0.32;72.42
22662;BME280;11497;52.222;21.246;2023-01-29T07:01:13;101093.59;;;0.28;72.18
22662;BME280;11497;52.222;21.246;2023-01-29T07:04:01;101108.00;;;0.20;71.99
22662;BME280;11497;52.222;21.246;2023-01-29T07:06:29;101098.66;;;0.23;72.21
22662;BME280;11497;52.222;21.246;2023-01-29T07:08:58;101088.88;;;0.52;71.64
22662;BME280;11497;52.222;21.246;2023-01-29T07:11:26;101079.97;;;0.33;71.44
22662;BME280;11497;52.222;21.246;2023-01-29T07:13:54;101083.31;;;0.29;71.55
22662;BME280;11497;52.222;21.246;2023-01-29T07:16:21;101072.47;;;0.46;71.08
22662;BME280;11497;52.222;21.246;2023-01-29T07:18:50;101062.81;;;0.34;71.04
22662;BME280;11497;52.222;21.246;2023-01-29T07:21:18;101049.84;;;0.29;71.00
22662;BME280;11497;52.222;21.246;2023-01-29T07:23:46;101065.34;;;0.31;70.96
22662;BME280;11497;52.222;21.246;2023-01-29T07:26:14;101071.53;;;0.41;70.92
22662;BME280;11497;52.222;21.246;2023-01-29T07:28:42;101076.88;;;0.53;70.85
22662;BME280;11497;52.222;21.246;2023-01-29T07:31:12;101077.13;;;0.65;70.58
22662;BME280;11497;52.222;21.246;2023-01-29T07:33:45;101081.97;;;0.50;70.51
22662;BME280;11497;52.222;21.246;2023-01-29T07:36:13;101084.59;;;0.53;70.78
22662;BME280;11497;52.222;21.246;2023-01-29T07:38:41;101083.28;;;0.73;70.21
22662;BME280;11497;52.222;21.246;2023-01-29T07:41:10;101096.84;;;0.64;70.31
22662;BME280;11497;52.222;21.246;2023-01-29T07:43:39;101099.56;;;0.72;69.95
22662;BME280;11497;52.222;21.246;2023-01-29T07:46:07;101096.06;;;0.69;69.90
22662;BME280;11497;52.222;21.246;2023-01-29T07:48:35;101096.22;;;0.76;69.88
22662;BME280;11497;52.222;21.246;2023-01-29T07:51:03;101104.84;;;0.78;70.09
22662;BME280;11497;52.222;21.246;2023-01-29T07:53:31;101093.31;;;1.08;69.45
22662;BME280;11497;52.222;21.246;2023-01-29T07:55:59;101077.84;;;1.08;68.80
22662;BME280;11497;52.222;21.246;2023-01-29T07:58:27;101073.78;;;1.22;68.38
22662;BME280;11497;52.222;21.246;2023-01-29T08:00:55;101059.88;;;1.12;67.83
22662;BME280;11497;52.222;21.246;2023-01-29T08:03:23;101067.78;;;1.23;68.02
22662;BME280;11497;52.222;21.246;2023-01-29T08:05:51;101067.03;;;1.30;67.72
22662;BME280;11497;52.222;21.246;2023-01-29T08:08:19;101071.56;;;1.48;67.24
22662;BME280;11497;52.222;21.246;2023-01-29T08:10:46;101065.50;;;1.44;67.03
22662;BME280;11497;52.222;21.246;2023-01-29T08:13:14;101065.53;;;1.47;66.98
22662;BME280;11497;52.222;21.246;2023-01-29T08:15:43;101066.25;;;1.37;66.70
22662;BME280;11497;52.222;21.246;2023-01-29T08:18:13;101063.88;;;1.51;66.75
22662;BME280;11497;52.222;21.246;2023-01-29T08:20:41;101060.41;;;1.49;66.58
22662;BME280;11497;52.222;21.246;2023-01-29T08:23:13;101063.28;;;1.69;65.84
22662;BME280;11497;52.222;21.246;2023-01-29T08:25:42;101063.78;;;1.45;65.93
22662;BME280;11497;52.222;21.246;2023-01-29T08:28:10;101069.72;;;1.39;66.27
22662;BME280;11497;52.222;21.246;2023-01-29T08:30:39;101057.94;;;1.56;65.67
22662;BME280;11497;52.222;21.246;2023-01-29T08:33:07;101055.28;;;1.50;65.89
22662;BME280;11497;52.222;21.246;2023-01-29T08:35:35;101058.03;;;1.62;65.90
22662;BME280;11497;52.222;21.246;2023-01-29T08:38:03;101059.50;;;1.45;65.66
22662;BME280;11497;52.222;21.246;2023-01-29T08:40:33;101056.06;;;1.46;65.72
22662;BME280;11497;52.222;21.246;2023-01-29T08:43:03;101057.03;;;1.53;65.73
22662;BME280;11497;52.222;21.246;2023-01-29T08:45:36;101050.28;;;1.62;65.74
22662;BME280;11497;52.222;21.246;2023-01-29T08:48:05;101061.53;;;1.67;65.99
22662;BME280;11497;52.222;21.246;2023-01-29T08:50:33;101052.69;;;1.50;65.85
22662;BME280;11497;52.222;21.246;2023-01-29T08:53:04;101059.88;;;1.73;65.83
22662;BME280;11497;52.222;21.246;2023-01-29T08:55:38;101049.44;;;1.63;65.48
22662;BME280;11497;52.222;21.246;2023-01-29T08:58:08;101054.66;;;1.66;65.38
22662;BME280;11497;52.222;21.246;2023-01-29T09:00:37;101040.91;;;1.67;65.42
22662;BME280;11497;52.222;21.246;2023-01-29T09:03:05;101043.53;;;1.74;65.33
22662;BME280;11497;52.222;21.246;2023-01-29T09:05:35;101035.84;;;1.78;65.61
22662;BME280;11497;52.222;21.246;2023-01-29T09:08:04;101036.09;;;1.96;65.76
22662;BME280;11497;52.222;21.246;2023-01-29T09:10:32;101027.59;;;2.05;65.16
22662;BME280;11497;52.222;21.246;2023-01-29T09:13:00;101032.00;;;2.15;64.79
22662;BME280;11497;52.222;21.246;2023-01-29T09:15:28;101019.13;;;2.21;64.04
22662;BME280;11497;52.222;21.246;2023-01-29T09:17:56;101015.63;;;2.13;64.33
22662;BME280;11497;52.222;21.246;2023-01-29T09:20:24;101006.22;;;2.20;64.13
22662;BME280;11497;52.222;21.246;2023-01-29T09:22:52;100999.47;;;2.32;63.77
22662;BME280;11497;52.222;21.246;2023-01-29T09:25:23;101002.19;;;2.48;63.90
22662;BME280;11497;52.222;21.246;2023-01-29T09:27:52;101002.38;;;2.69;63.24
22662;BME280;11497;52.222;21.246;2023-01-29T09:30:20;100995.47;;;2.68;62.61
22662;BME280;11497;52.222;21.246;2023-01-29T09:32:48;101002.41;;;2.75;62.54
22662;BME280;11497;52.222;21.246;2023-01-29T09:35:23;101007.59;;;2.75;62.47
22662;BME280;11497;52.222;21.246;2023-01-29T09:37:51;101012.81;;;2.81;62.27
22662;BME280;11497;52.222;21.246;2023-01-29T09:43:42;100995.59;;;2.83;62.02
22662;BME280;11497;52.222;21.246;2023-01-29T09:48:43;100988.66;;;2.76;62.48
22662;BME280;11497;52.222;21.246;2023-01-29T09:51:27;100992.16;;;2.83;62.34
22662;BME280;11497;52.222;21.246;2023-01-29T09:54:22;100999.16;;;2.97;62.23
22662;BME280;11497;52.222;21.246;2023-01-29T09:56:54;100984.44;;;2.89;61.99
22662;BME280;11497;52.222;21.246;2023-01-29T09:59:25;100973.47;;;3.28;62.71
22662;BME280;11497;52.222;21.246;2023-01-29T10:02:21;100971.94;;;3.63;62.09
22662;BME280;11497;52.222;21.246;2023-01-29T10:05:27;100960.91;;;4.31;61.20
22662;BME280;11497;52.222;21.246;2023-01-29T10:10:53;100960.88;;;4.79;59.54
22662;BME280;11497;52.222;21.246;2023-01-29T10:13:39;100952.25;;;4.78;58.95
22662;BME280;11497;52.222;21.246;2023-01-29T10:21:27;100959.19;;;4.32;58.51
22662;BME280;11497;52.222;21.246;2023-01-29T10:24:21;100941.00;;;4.40;58.85
22662;BME280;11497;52.222;21.246;2023-01-29T10:26:51;100946.19;;;4.15;59.08
22662;BME280;11497;52.222;21.246;2023-01-29T10:29:20;100945.31;;;4.07;59.52
22662;BME280;11497;52.222;21.246;2023-01-29T10:31:57;100950.31;;;3.57;59.87
22662;BME280;11497;52.222;21.246;2023-01-29T10:35:38;100951.19;;;3.60;60.72
22662;BME280;11497;52.222;21.246;2023-01-29T10:37:45;100951.16;;;3.45;61.27
22662;BME280;11497;52.222;21.246;2023-01-29T10:40:54;100945.78;;;3.10;61.25
22662;BME280;11497;52.222;21.246;2023-01-29T10:51:36;100944.91;;;3.07;62.85
22662;BME280;11497;52.222;21.246;2023-01-29T11:02:18;100934.31;;;2.68;64.65
22662;BME280;11497;52.222;21.246;2023-01-29T11:04:48;100936.75;;;2.49;65.83
22662;BME280;11497;52.222;21.246;2023-01-29T11:07:18;100927.94;;;2.25;66.99
22662;BME280;11497;52.222;21.246;2023-01-29T11:12:28;100912.56;;;2.41;68.18
22662;BME280;11497;52.222;21.246;2023-01-29T11:18:11;100906.50;;;2.37;68.84
22662;BME280;11497;52.222;21.246;2023-01-29T11:20:43;100907.22;;;2.22;69.57
22662;BME280;11497;52.222;21.246;2023-01-29T11:23:30;100902.09;;;2.24;69.76
22662;BME280;11497;52.222;21.246;2023-01-29T11:25:59;100902.81;;;2.06;70.34
22662;BME280;11497;52.222;21.246;2023-01-29T11:28:43;100891.63;;;2.07;70.72
22662;BME280;11497;52.222;21.246;2023-01-29T11:31:23;100891.44;;;1.89;71.65
22662;BME280;11497;52.222;21.246;2023-01-29T11:34:04;100881.22;;;1.98;72.06
22662;BME280;11497;52.222;21.246;2023-01-29T11:36:37;100881.09;;;1.86;72.01
22662;BME280;11497;52.222;21.246;2023-01-29T11:39:22;100855.28;;;1.87;72.88
22662;BME280;11497;52.222;21.246;2023-01-29T11:42:01;100852.94;;;2.12;72.79
22662;BME280;11497;52.222;21.246;2023-01-29T11:44:31;100840.84;;;2.08;72.52
22662;BME280;11497;52.222;21.246;2023-01-29T11:47:17;100837.59;;;2.33;72.35
22662;BME280;11497;52.222;21.246;2023-01-29T11:50:04;100838.66;;;2.64;71.91
22662;BME280;11497;52.222;21.246;2023-01-29T11:52:39;100832.66;;;2.70;71.87
22662;BME280;11497;52.222;21.246;2023-01-29T11:55:22;100830.09;;;2.71;71.52
22662;BME280;11497;52.222;21.246;2023-01-29T12:00:31;100827.47;;;2.66;71.25
22662;BME280;11497;52.222;21.246;2023-01-29T12:03:27;100827.25;;;2.31;71.49
22662;BME280;11497;52.222;21.246;2023-01-29T12:06:19;100818.66;;;2.36;71.50
22662;BME280;11497;52.222;21.246;2023-01-29T12:08:59;100822.09;;;2.33;71.40
22662;BME280;11497;52.222;21.246;2023-01-29T12:11:34;100820.34;;;2.29;71.73
22662;BME280;11497;52.222;21.246;2023-01-29T12:14:05;100816.91;;;2.28;71.88
22662;BME280;11497;52.222;21.246;2023-01-29T12:17:07;100807.34;;;2.18;71.69
22662;BME280;11497;52.222;21.246;2023-01-29T12:19:52;100805.63;;;2.14;71.81
22662;BME280;11497;52.222;21.246;2023-01-29T12:28:34;100788.97;;;1.79;73.24
22662;BME280;11497;52.222;21.246;2023-01-29T12:33:45;100790.66;;;1.71;73.98
22662;BME280;11497;52.222;21.246;2023-01-29T12:38:46;100791.53;;;1.79;74.41
22662;BME280;11497;52.222;21.246;2023-01-29T12:43:52;100781.84;;;1.52;75.26
22662;BME280;11497;52.222;21.246;2023-01-29T12:46:28;100777.53;;;1.49;75.26
22662;BME280;11497;52.222;21.246;2023-01-29T12:49:02;100774.09;;;1.50;75.83
22662;BME280;11497;52.222;21.246;2023-01-29T12:51:51;100767.50;;;1.83;75.64
22662;BME280;11497;52.222;21.246;2023-01-29T12:54:30;100768.22;;;1.63;75.85
22662;BME280;11497;52.222;21.246;2023-01-29T12:57:06;100749.13;;;1.48;75.76
22662;BME280;11497;52.222;21.246;2023-01-29T12:59:51;100750.19;;;1.66;76.32
22662;BME280;11497;52.222;21.246;2023-01-29T13:02:35;100752.56;;;1.47;76.28
22662;BME280;11497;52.222;21.246;2023-01-29T13:05:25;100758.53;;;1.41;77.18
22662;BME280;11497;52.222;21.246;2023-01-29T13:08:05;100758.56;;;1.44;77.30
22662;BME280;11497;52.222;21.246;2023-01-29T13:10:40;100757.06;;;1.66;77.02
22662;BME280;11497;52.222;21.246;2023-01-29T13:13:36;100770.00;;;1.72;76.98
22662;BME280;11497;52.222;21.246;2023-01-29T13:16:08;100790.56;;;1.61;77.22
22662;BME280;11497;52.222;21.246;2023-01-29T13:18:54;100773.25;;;1.51;76.68
22662;BME280;11497;52.222;21.246;2023-01-29T13:21:28;100778.53;;;1.63;77.43
22662;BME280;11497;52.222;21.246;2023-01-29T13:24:02;100787.03;;;1.55;77.68
22662;BME280;11497;52.222;21.246;2023-01-29T13:26:31;100773.19;;;1.45;77.91
22662;BME280;11497;52.222;21.246;2023-01-29T13:29:01;100769.84;;;1.54;77.84
22662;BME280;11497;52.222;21.246;2023-01-29T13:31:37;100775.88;;;1.57;78.30
22662;BME280;11497;52.222;21.246;2023-01-29T13:36:36;100770.53;;;1.39;78.72
22662;BME280;11497;52.222;21.246;2023-01-29T13:39:15;100766.19;;;1.33;79.53
22662;BME280;11497;52.222;21.246;2023-01-29T13:41:43;100765.25;;;1.24;80.02
22662;BME280;11497;52.222;21.246;2023-01-29T13:44:27;100768.69;;;1.23;81.08
22662;BME280;11497;52.222;21.246;2023-01-29T13:47:39;100762.53;;;1.10;81.80
22662;BME280;11497;52.222;21.246;2023-01-29T13:50:17;100738.41;;;1.07;82.98
22662;BME280;11497;52.222;21.246;2023-01-29T13:52:55;100734.19;;;1.12;83.39
22662;BME280;11497;52.222;21.246;2023-01-29T13:55:35;100734.31;;;1.24;83.70
22662;BME280;11497;52.222;21.246;2023-01-29T13:58:12;100729.97;;;1.20;83.82
22662;BME280;11497;52.222;21.246;2023-01-29T14:05:44;100735.19;;;1.24;83.66
22662;BME280;11497;52.222;21.246;2023-01-29T14:08:39;100746.44;;;1.36;83.79
22662;BME280;11497;52.222;21.246;2023-01-29T14:13:49;100750.72;;;1.33;83.19
22662;BME280;11497;52.222;21.246;2023-01-29T14:23:46;100770.38;;;1.21;84.08
22662;BME280;11497;52.222;21.246;2023-01-29T14:26:29;100765.19;;;1.18;84.20
22662;BME280;11497;52.222;21.246;2023-01-29T14:29:21;100767.56;;;1.01;84.85
22662;BME280;11497;52.222;21.246;2023-01-29T14:32:10;100772.81;;;1.09;85.11
22662;BME280;11497;52.222;21.246;2023-01-29T14:34:47;100777.25;;;1.20;85.40
22662;BME280;11497;52.222;21.246;2023-01-29T14:39:50;100761.59;;;1.04;86.46
22662;BME280;11497;52.222;21.246;2023-01-29T14:42:32;100753.78;;;0.99;86.83
22662;BME280;11497;52.222;21.246;2023-01-29T14:53:12;100731.31;;;0.83;87.60
22662;BME280;11497;52.222;21.246;2023-01-29T15:01:35;100720.22;;;0.91;88.62
22662;BME280;11497;52.222;21.246;2023-01-29T15:04:12;100723.56;;;0.81;88.94
22662;BME280;11497;52.222;21.246;2023-01-29T15:06:58;100732.00;;;0.71;89.24
22662;BME280;11497;52.222;21.246;2023-01-29T15:09:51;100733.69;;;0.68;89.29
22662;BME280;11497;52.222;21.246;2023-01-29T15:18:16;100718.34;;;0.78;89.70
22662;BME280;11497;52.222;21.246;2023-01-29T15:23:28;100726.06;;;0.77;89.79
22662;BME280;11497;52.222;21.246;2023-01-29T15:26:03;100722.56;;;0.70;90.22
22662;BME280;11497;52.222;21.246;2023-01-29T15:28:33;100712.09;;;0.58;90.50
22662;BME280;11497;52.222;21.246;2023-01-29T15:31:04;100722.53;;;0.69;90.87
22662;BME280;11497;52.222;21.246;2023-01-29T15:33:35;100720.00;;;0.73;90.91
22662;BME280;11497;52.222;21.246;2023-01-29T15:36:05;100714.88;;;0.73;90.61
22662;BME280;11497;52.222;21.246;2023-01-29T15:38:35;100704.66;;;0.82;90.20
22662;BME280;11497;52.222;21.246;2023-01-29T15:41:18;100704.56;;;0.73;90.31
22662;BME280;11497;52.222;21.246;2023-01-29T15:43:48;100703.78;;;0.79;90.28
22662;BME280;11497;52.222;21.246;2023-01-29T15:46:21;100705.47;;;0.77;90.18
22662;BME280;11497;52.222;21.246;2023-01-29T15:48:53;100697.72;;;0.75;90.33
22662;BME280;11497;52.222;21.246;2023-01-29T15:51:24;100689.94;;;0.72;90.39
22662;BME280;11497;52.222;21.246;2023-01-29T15:54:03;100701.22;;;0.80;90.38